Time;durP1;ratioP1;P1;durP2;ratioP2;P2;SDS_P1;SDS_P2;PMS_P1;PMS_P2;Temp;Humidity;BMP_temperature;BMP_pressure;BME280_temperature;BME280_humidity;BME280_pressure;Samples;Min_cycle;Max_cycle;Signal;HPM_P1;HPM_P2
2022/09/25 00:01:11;;;;;;;13.88;9.90;;;;;;;10.54;100.00;96268.53;5042075;28;20120;-64
2022/09/25 00:03:38;;;;;;;13.90;9.68;;;;;;;10.48;100.00;96259.88;5046741;28;20044;-64
2022/09/25 00:06:07;;;;;;;11.95;10.00;;;;;;;10.39;100.00;96261.34;5043503;28;20138;-64
2022/09/25 00:08:34;;;;;;;13.40;9.25;;;;;;;10.30;100.00;96259.69;5047442;28;20099;-68
2022/09/25 00:11:06;;;;;;;13.18;9.57;;;;;;;10.19;100.00;96256.03;5047079;28;20056;-66
2022/09/25 00:13:32;;;;;;;50.90;12.32;;;;;;;9.93;100.00;96251.44;5047143;28;20065;-65
2022/09/25 00:15:58;;;;;;;50.15;11.80;;;;;;;9.76;100.00;96250.88;5031805;28;20375;-65
2022/09/25 00:21:11;;;;;;;129.75;15.15;;;;;;;9.53;100.00;96256.44;5042258;28;20563;-63
2022/09/25 00:23:37;;;;;;;16.77;11.90;;;;;;;9.47;100.00;96251.63;5032414;28;20102;-64
2022/09/25 00:26:07;;;;;;;15.60;12.07;;;;;;;9.55;100.00;96251.38;5028355;28;20045;-64
2022/09/25 00:28:35;;;;;;;;;;;;;;;9.52;100.00;96252.09;5051114;28;20047;-67
2022/09/25 00:31:02;;;;;;;16.75;12.30;;;;;;;9.48;100.00;96247.75;5050299;28;19916;-68
2022/09/25 00:33:27;;;;;;;16.10;11.77;;;;;;;9.57;100.00;96245.53;5045804;28;20047;-65
2022/09/25 00:35:53;;;;;;;78.15;14.00;;;;;;;9.55;100.00;96251.38;5047486;28;20044;-66
2022/09/25 00:38:18;;;;;;;20.20;11.85;;;;;;;9.43;100.00;96245.34;5027590;28;20071;-66
2022/09/25 00:40:44;;;;;;;27.15;11.55;;;;;;;9.33;100.00;96246.78;5049162;28;20100;-66
2022/09/25 00:43:36;;;;;;;22.58;11.13;;;;;;;9.40;100.00;96241.41;5025088;28;20502;-65
2022/09/25 00:46:04;;;;;;;52.55;11.15;;;;;;;9.51;100.00;96234.13;5046945;28;20037;-66
2022/09/25 00:48:30;;;;;;;97.50;11.30;;;;;;;9.26;100.00;96233.03;5049946;28;20114;-66
2022/09/25 00:50:58;;;;;;;14.10;9.43;;;;;;;9.24;100.00;96233.38;5046992;28;20104;-66
2022/09/25 00:53:38;;;;;;;12.70;9.65;;;;;;;9.40;100.00;96237.88;5027675;28;20427;-68
2022/09/25 00:56:04;;;;;;;11.18;9.00;;;;;;;9.44;100.00;96233.25;5012490;28;20557;-64
2022/09/25 00:58:34;;;;;;;13.73;9.60;;;;;;;9.49;100.00;96230.19;5049553;28;20045;-66
2022/09/25 01:00:59;;;;;;;10.32;8.68;;;;;;;9.54;100.00;96219.75;5033518;28;20483;-66
2022/09/25 01:03:26;;;;;;;12.30;8.60;;;;;;;9.54;100.00;96221.66;5045278;28;20041;-67
2022/09/25 01:05:53;;;;;;;9.27;8.13;;;;;;;9.51;100.00;96225.94;5048812;28;20428;-66
2022/09/25 01:08:23;;;;;;;8.57;7.30;;;;;;;9.44;100.00;96220.38;5045078;28;20037;-65
2022/09/25 01:10:49;;;;;;;;;;;;;;;9.35;100.00;96222.59;5044566;28;20049;-65
2022/09/25 01:13:15;;;;;;;10.98;7.15;;;;;;;9.35;100.00;96223.38;5045017;28;19919;-66
2022/09/25 01:15:55;;;;;;;10.43;7.95;;;;;;;9.31;100.00;96228.03;5032290;28;20052;-65
2022/09/25 01:18:43;;;;;;;10.43;7.80;;;;;;;9.28;100.00;96225.25;5026183;28;20409;-65
2022/09/25 01:21:18;;;;;;;22.65;7.90;;;;;;;9.12;100.00;96223.44;5044437;28;20033;-65
2022/09/25 01:24:14;;;;;;;32.65;8.43;;;;;;;8.76;100.00;96224.88;5030364;28;20041;-66
2022/09/25 01:27:16;;;;;;;10.48;8.38;;;;;;;8.71;100.00;96223.22;5012506;28;20054;-66
2022/09/25 01:29:59;;;;;;;12.60;7.80;;;;;;;8.79;100.00;96214.00;5043807;28;20414;-64
2022/09/25 01:32:35;;;;;;;8.95;7.68;;;;;;;8.88;100.00;96219.22;5043032;28;20510;-63
2022/09/25 01:35:07;;;;;;;10.38;7.82;;;;;;;8.98;100.00;96212.31;5049109;28;20378;-64
2022/09/25 01:37:42;;;;;;;9.15;7.78;;;;;;;9.02;100.00;96223.28;5028423;28;20512;-65
2022/09/25 01:40:25;;;;;;;10.00;8.25;;;;;;;9.07;100.00;96225.72;5043954;28;20041;-68
2022/09/25 01:43:04;;;;;;;7.82;7.03;;;;;;;9.13;100.00;96229.72;5049237;28;20037;-65
2022/09/25 01:45:37;;;;;;;7.85;7.00;;;;;;;9.19;100.00;96229.03;5031429;28;20672;-65
2022/09/25 01:48:04;;;;;;;11.40;6.88;;;;;;;9.11;100.00;96224.63;5046474;28;20068;-65
2022/09/25 01:50:41;;;;;;;28.33;7.80;;;;;;;8.87;100.00;96225.03;5028693;28;20044;-64
2022/09/25 01:53:11;;;;;;;41.55;7.85;;;;;;;8.65;100.00;96208.31;5025297;28;20052;-65
2022/09/25 01:55:39;;;;;;;;;;;;;;;8.38;100.00;96215.66;5032350;28;20132;-64
2022/09/25 01:58:12;;;;;;;13.25;7.97;;;;;;;8.35;100.00;96210.91;5044203;28;19921;-65
2022/09/25 02:00:43;;;;;;;11.45;8.63;;;;;;;8.35;100.00;96211.69;5048140;28;20060;-67
2022/09/25 02:03:25;;;;;;;12.88;8.27;;;;;;;8.54;100.00;96207.38;5025281;28;20040;-65
2022/09/25 02:05:55;;;;;;;10.20;8.05;;;;;;;8.71;100.00;96208.78;5036627;28;20045;-66
2022/09/25 02:08:27;;;;;;;9.43;8.07;;;;;;;8.72;100.00;96211.16;5023786;28;20041;-64
2022/09/25 02:10:59;;;;;;;9.80;8.40;;;;;;;8.79;100.00;96208.53;5048059;28;20033;-65
2022/09/25 02:13:33;;;;;;;10.07;7.80;;;;;;;8.95;100.00;96202.94;5024737;28;20080;-66
2022/09/25 02:16:06;;;;;;;8.88;7.45;;;;;;;9.15;100.00;96189.94;5045635;28;20207;-65
2022/09/25 02:21:34;;;;;;;9.10;7.55;;;;;;;8.35;100.00;96200.78;5040273;28;20440;-65
2022/09/25 02:24:23;;;;;;;12.85;9.27;;;;;;;8.48;100.00;96200.63;5043862;28;20048;-66
2022/09/25 02:26:51;;;;;;;12.57;8.30;;;;;;;8.59;100.00;96196.16;5039930;28;20052;-65
2022/09/25 02:29:17;;;;;;;13.38;9.57;;;;;;;8.71;100.00;96201.38;5039744;28;20397;-66
2022/09/25 02:31:52;;;;;;;12.40;9.45;;;;;;;8.79;100.00;96205.03;5043737;28;20045;-64
2022/09/25 02:34:18;;;;;;;14.70;10.13;;;;;;;8.90;100.00;96205.19;5022559;28;20052;-64
2022/09/25 02:36:43;;;;;;;11.98;9.48;;;;;;;9.00;100.00;96201.81;5026972;28;20048;-64
2022/09/25 02:39:12;;;;;;;17.50;11.55;;;;;;;9.05;100.00;96197.97;5039906;28;20063;-64
2022/09/25 02:41:40;;;;;;;25.35;17.77;;;;;;;9.07;100.00;96207.38;5046848;28;20131;-64
2022/09/25 02:44:09;;;;;;;20.60;14.30;;;;;;;9.16;100.00;96201.66;5044169;28;20052;-65
2022/09/25 02:46:53;;;;;;;22.90;15.35;;;;;;;9.30;100.00;96201.84;5042705;28;20457;-65
2022/09/25 02:49:35;;;;;;;17.48;12.98;;;;;;;9.41;100.00;96201.19;5025245;28;20140;-65
2022/09/25 02:52:11;;;;;;;18.10;11.75;;;;;;;9.47;100.00;96200.50;5044392;28;20037;-65
2022/09/25 02:54:46;;;;;;;14.40;10.45;;;;;;;9.46;100.00;96201.66;5044457;28;20591;-64
2022/09/25 02:57:19;;;;;;;14.40;8.85;;;;;;;9.41;100.00;96198.47;4998143;28;20053;-64
2022/09/25 02:59:52;;;;;;;12.30;9.77;;;;;;;9.39;100.00;96207.03;5043605;28;20135;-64
2022/09/25 03:02:20;;;;;;;11.02;8.00;;;;;;;9.36;100.00;96200.38;5037581;28;20047;-64
2022/09/25 03:04:48;;;;;;;11.45;8.35;;;;;;;9.36;100.00;96194.09;5029621;28;20060;-64
2022/09/25 03:07:15;;;;;;;12.75;8.35;;;;;;;9.35;100.00;96190.59;5046606;28;20048;-64
2022/09/25 03:09:45;;;;;;;11.48;8.75;;;;;;;9.32;100.00;96194.06;5048031;28;20047;-64
2022/09/25 03:12:13;;;;;;;11.73;8.23;;;;;;;9.44;100.00;96198.50;5023651;28;20118;-64
2022/09/25 03:14:38;;;;;;;10.18;7.32;;;;;;;9.39;100.00;96201.56;5029625;28;20402;-63
2022/09/25 03:17:07;;;;;;;9.15;7.50;;;;;;;9.29;100.00;96199.47;5042772;28;20073;-65
2022/09/25 03:19:33;;;;;;;10.48;8.02;;;;;;;9.18;100.00;96207.53;5042837;28;20055;-63
2022/09/25 03:22:00;;;;;;;16.27;8.30;;;;;;;9.27;100.00;96196.31;5024472;28;20549;-64
2022/09/25 03:24:26;;;;;;;15.70;8.50;;;;;;;9.25;100.00;96193.97;5037423;28;20045;-64
2022/09/25 03:26:52;;;;;;;10.30;8.27;;;;;;;9.31;100.00;96197.97;5042234;28;20041;-64
2022/09/25 03:29:19;;;;;;;11.75;7.97;;;;;;;9.32;100.00;96196.00;5028833;28;20494;-64
2022/09/25 03:31:45;;;;;;;10.00;7.95;;;;;;;9.24;100.00;96199.78;5042725;28;20560;-65
2022/09/25 03:34:13;;;;;;;10.70;7.78;;;;;;;9.14;100.00;96198.50;5003508;28;20037;-64
2022/09/25 03:36:40;;;;;;;13.68;8.50;;;;;;;9.24;100.00;96195.13;5042207;28;20045;-63
2022/09/25 03:39:05;;;;;;;12.25;8.70;;;;;;;9.35;100.00;96195.28;5021506;28;20375;-63
2022/09/25 03:41:34;;;;;;;12.57;9.20;;;;;;;9.42;100.00;96198.09;5045252;28;20488;-65
2022/09/25 03:44:00;;;;;;;12.55;8.70;;;;;;;9.51;100.00;96195.88;5015008;28;20060;-65
2022/09/25 03:46:31;;;;;;;11.75;8.98;;;;;;;9.60;100.00;96192.84;5042967;28;20033;-64
2022/09/25 03:48:57;;;;;;;10.68;8.98;;;;;;;9.62;100.00;96187.00;5025074;28;20108;-65
2022/09/25 03:51:25;;;;;;;14.77;9.82;;;;;;;9.66;100.00;96180.41;5022671;28;20037;-64
2022/09/25 03:53:51;;;;;;;15.05;9.82;;;;;;;9.70;100.00;96186.69;5045352;28;20041;-65
2022/09/25 03:56:19;;;;;;;13.32;10.25;;;;;;;9.60;100.00;96186.56;5024320;28;20462;-66
2022/09/25 03:58:46;;;;;;;15.23;10.23;;;;;;;9.56;100.00;96187.34;5051846;28;20068;-66
2022/09/25 04:01:13;;;;;;;14.68;10.75;;;;;;;9.47;100.00;96191.50;5028431;28;20045;-62
2022/09/25 04:03:39;;;;;;;15.30;10.55;;;;;;;9.46;100.00;96188.00;5032623;28;20041;-71
2022/09/25 04:06:06;;;;;;;17.00;11.95;;;;;;;9.29;100.00;96185.81;5026228;28;20045;-67
2022/09/25 04:08:34;;;;;;;19.38;12.25;;;;;;;9.15;100.00;96191.88;5061726;28;20056;-65
2022/09/25 04:11:01;;;;;;;17.05;12.50;;;;;;;9.10;100.00;96181.28;5069677;28;20646;-65
2022/09/25 04:13:34;;;;;;;19.67;13.45;;;;;;;9.07;100.00;96182.78;5049964;28;20131;-66
2022/09/25 04:16:02;;;;;;;20.33;12.55;;;;;;;9.13;100.00;96175.88;5064419;28;20045;-67
2022/09/25 04:18:31;;;;;;;17.95;13.00;;;;;;;9.36;100.00;96183.97;5063163;28;20036;-65
2022/09/25 04:21:03;;;;;;;19.90;13.15;;;;;;;9.35;100.00;96187.06;5055738;28;20040;-65
2022/09/25 04:23:28;;;;;;;17.90;13.05;;;;;;;9.27;100.00;96180.72;5063646;28;20058;-65
2022/09/25 04:25:54;;;;;;;19.27;12.70;;;;;;;9.12;100.00;96174.28;5061079;28;20402;-64
2022/09/25 04:28:21;;;;;;;20.63;13.73;;;;;;;8.98;100.00;96182.28;5053352;28;20040;-64
2022/09/25 04:30:47;;;;;;;20.67;14.27;;;;;;;8.91;100.00;96179.44;5050761;28;20041;-64
2022/09/25 04:35:57;;;;;;;30.05;17.42;;;;;;;8.72;100.00;96180.34;5058482;28;20044;-63
2022/09/25 04:38:22;;;;;;;30.85;16.40;;;;;;;8.73;100.00;96181.91;5063972;28;20366;-64
2022/09/25 04:40:48;;;;;;;24.65;16.42;;;;;;;8.83;100.00;96186.75;5068855;28;20441;-65
2022/09/25 04:43:14;;;;;;;23.73;15.13;;;;;;;8.98;100.00;96179.53;5064650;28;20036;-66
2022/09/25 04:45:39;;;;;;;21.50;14.48;;;;;;;9.06;100.00;96181.22;5064632;28;20044;-64
2022/09/25 04:48:05;;;;;;;19.65;13.18;;;;;;;9.15;100.00;96179.00;5046829;28;20050;-67
2022/09/25 04:50:31;;;;;;;19.60;13.05;;;;;;;9.18;100.00;96183.75;5069883;28;20044;-65
2022/09/25 04:52:57;;;;;;;20.95;13.88;;;;;;;9.19;100.00;96181.78;5068328;28;20493;-66
2022/09/25 04:55:23;;;;;;;20.55;12.82;;;;;;;9.21;100.00;96182.19;5039076;28;20118;-65
2022/09/25 04:57:58;;;;;;;21.27;13.68;;;;;;;9.31;100.00;96180.75;5060410;28;20044;-66
2022/09/25 05:00:26;;;;;;;19.17;13.38;;;;;;;9.34;100.00;96180.81;5045351;28;20041;-66
2022/09/25 05:02:52;;;;;;;19.40;12.40;;;;;;;9.33;100.00;96181.97;5060275;28;20072;-66
2022/09/25 05:05:18;;;;;;;17.52;12.15;;;;;;;9.38;100.00;96186.31;5058127;28;20045;-66
2022/09/25 05:07:54;;;;;;;18.15;11.95;;;;;;;9.42;100.00;96189.09;5047768;28;20481;-66
2022/09/25 05:10:26;;;;;;;18.45;12.60;;;;;;;9.34;100.00;96182.75;5063015;28;20055;-66
2022/09/25 05:13:00;;;;;;;19.92;11.35;;;;;;;9.12;100.00;96176.22;5067536;28;20051;-66
2022/09/25 05:15:27;;;;;;;17.50;11.55;;;;;;;9.08;100.00;96186.34;5057725;28;20075;-67
2022/09/25 05:18:14;;;;;;;17.38;11.77;;;;;;;9.21;100.00;96186.88;5065004;28;20050;-66
2022/09/25 05:20:39;;;;;;;17.15;11.52;;;;;;;9.31;100.00;96188.97;5063763;28;20048;-65
2022/09/25 05:23:04;;;;;;;18.83;12.25;;;;;;;9.38;100.00;96184.38;5046582;28;20033;-65
2022/09/25 05:25:30;;;;;;;19.17;11.95;;;;;;;9.41;100.00;96190.28;5041892;28;20101;-65
2022/09/25 05:27:58;;;;;;;23.70;14.13;;;;;;;9.51;100.00;96193.13;5066142;28;20173;-65
2022/09/25 05:30:25;;;;;;;22.75;14.80;;;;;;;9.66;100.00;96190.56;5061710;28;20502;-65
2022/09/25 05:32:51;;;;;;;25.73;15.23;;;;;;;9.71;100.00;96195.72;5028131;28;20052;-64
2022/09/25 05:35:22;;;;;;;35.17;14.32;;;;;;;9.56;100.00;96197.47;5042596;28;20041;-64
2022/09/25 05:37:48;;;;;;;23.15;13.13;;;;;;;9.47;100.00;96197.78;5028226;28;20486;-66
2022/09/25 05:40:15;;;;;;;21.23;13.68;;;;;;;9.50;100.00;96207.94;5041776;28;20041;-65
2022/09/25 05:42:44;;;;;;;21.55;13.90;;;;;;;9.58;100.00;96208.84;5046082;28;20512;-67
2022/09/25 05:45:11;;;;;;;;;;;;;;;9.83;100.00;96206.41;5042304;28;20471;-65
2022/09/25 05:47:37;;;;;;;20.00;12.48;;;;;;;9.95;100.00;96200.66;5046348;28;19948;-65
2022/09/25 05:50:03;;;;;;;20.05;11.93;;;;;;;10.12;100.00;96198.50;5027610;28;20048;-66
2022/09/25 05:52:30;;;;;;;22.70;12.75;;;;;;;10.20;100.00;96202.09;5044947;28;20052;-65
2022/09/25 05:54:55;;;;;;;20.15;12.63;;;;;;;10.16;100.00;96204.78;5046248;28;20052;-65
2022/09/25 05:57:22;;;;;;;20.63;13.23;;;;;;;10.20;100.00;96213.81;5025646;28;20037;-65
2022/09/25 05:59:48;;;;;;;21.58;12.82;;;;;;;10.24;100.00;96213.84;5043969;28;20051;-65
2022/09/25 06:02:14;;;;;;;23.30;13.02;;;;;;;10.26;100.00;96219.72;5065017;28;20128;-63
2022/09/25 06:04:40;;;;;;;19.45;12.18;;;;;;;10.23;100.00;96213.06;5067413;28;20048;-63
2022/09/25 06:07:05;;;;;;;20.20;12.63;;;;;;;10.24;100.00;96211.88;5043548;28;20108;-65
2022/09/25 06:09:31;;;;;;;18.42;12.05;;;;;;;10.24;100.00;96213.84;5040124;28;20068;-65
2022/09/25 06:11:56;;;;;;;21.80;13.32;;;;;;;10.34;100.00;96226.91;5065676;28;20040;-65
2022/09/25 06:14:22;;;;;;;20.85;12.75;;;;;;;10.40;100.00;96219.91;5041073;28;20049;-65
2022/09/25 06:16:49;;;;;;;25.13;13.85;;;;;;;10.50;100.00;96224.69;5049682;28;20087;-65
2022/09/25 06:19:16;;;;;;;21.10;12.20;;;;;;;10.43;100.00;96223.84;5029833;28;20049;-65
2022/09/25 06:21:42;;;;;;;21.05;12.40;;;;;;;10.51;100.00;96222.72;5039846;28;20061;-65
2022/09/25 06:24:09;;;;;;;22.13;11.63;;;;;;;10.48;100.00;96224.28;5040736;28;20048;-63
2022/09/25 06:26:35;;;;;;;19.35;11.93;;;;;;;10.53;100.00;96223.13;5046718;28;20037;-65
2022/09/25 06:29:02;;;;;;;22.80;13.10;;;;;;;10.55;100.00;96223.53;5046102;28;20076;-65
2022/09/25 06:31:28;;;;;;;22.35;12.45;;;;;;;10.58;100.00;96216.53;5016890;28;20069;-64
2022/09/25 06:33:54;;;;;;;21.38;12.88;;;;;;;10.57;100.00;96218.50;5047080;28;20044;-65
2022/09/25 06:36:19;;;;;;;21.48;11.52;;;;;;;10.75;100.00;96217.84;5041141;28;20389;-64
2022/09/25 06:38:45;;;;;;;23.70;12.32;;;;;;;10.77;100.00;96210.03;5046754;28;20048;-65
2022/09/25 06:41:11;;;;;;;23.35;13.35;;;;;;;10.91;100.00;96210.13;5060713;28;20048;-66
2022/09/25 06:43:36;;;;;;;21.02;12.63;;;;;;;11.02;100.00;96210.22;5064724;28;20040;-66
2022/09/25 06:46:02;;;;;;;21.00;12.75;;;;;;;11.13;100.00;96213.00;5061961;28;20402;-66
2022/09/25 06:48:29;;;;;;;18.88;11.65;;;;;;;11.21;100.00;96215.44;5044009;28;20183;-66
2022/09/25 06:50:58;;;;;;;18.33;12.07;;;;;;;11.31;100.00;96219.41;5029669;28;20043;-68
2022/09/25 06:53:24;;;;;;;17.70;12.10;;;;;;;11.33;100.00;96227.25;5025834;28;20473;-65
2022/09/25 06:55:50;;;;;;;20.88;11.57;;;;;;;11.38;100.00;96222.19;5047303;28;20048;-65
2022/09/25 06:58:22;;;;;;;19.20;11.38;;;;;;;11.49;100.00;96216.78;5040871;28;20041;-64
2022/09/25 07:00:49;;;;;;;22.50;12.93;;;;;;;11.51;100.00;96222.66;5028654;28;20060;-65
2022/09/25 07:06:01;;;;;;;22.25;12.73;;;;;;;11.66;100.00;96231.72;5046349;28;20568;-66
2022/09/25 07:08:27;;;;;;;21.92;13.20;;;;;;;11.65;100.00;96228.22;5039326;28;20052;-66
2022/09/25 07:10:54;;;;;;;24.13;13.05;;;;;;;11.78;100.00;96225.13;5046173;28;20435;-66
2022/09/25 07:13:23;;;;;;;25.33;13.50;;;;;;;11.90;100.00;96223.97;5040928;28;20502;-66
2022/09/25 07:15:52;;;;;;;23.92;13.43;;;;;;;11.80;100.00;96223.56;5045536;28;20049;-66
2022/09/25 07:18:18;;;;;;;26.98;14.90;;;;;;;11.92;100.00;96229.91;5040124;28;20067;-66
2022/09/25 07:20:45;;;;;;;27.17;14.85;;;;;;;11.94;100.00;96224.81;5040911;28;20051;-65
2022/09/25 07:23:14;;;;;;;26.30;14.80;;;;;;;12.11;100.00;96231.53;5043777;28;20139;-64
2022/09/25 07:25:40;;;;;;;33.05;17.15;;;;;;;12.22;100.00;96229.59;5047152;28;20056;-66
2022/09/25 07:28:06;;;;;;;28.15;16.67;;;;;;;12.28;100.00;96230.81;5024505;28;20045;-67
2022/09/25 07:30:32;;;;;;;27.50;15.27;;;;;;;12.47;100.00;96215.91;5043855;28;20394;-66
2022/09/25 07:32:57;;;;;;;26.25;15.45;;;;;;;12.70;100.00;96223.00;5045862;28;20044;-67
2022/09/25 07:35:23;;;;;;;26.35;15.43;;;;;;;12.67;100.00;96221.03;5041686;28;20044;-66
2022/09/25 07:37:48;;;;;;;29.00;16.42;;;;;;;12.85;100.00;96229.28;5048523;28;20105;-66
2022/09/25 07:40:14;;;;;;;28.23;16.08;;;;;;;12.94;100.00;96226.91;5043241;28;20091;-67
2022/09/25 07:42:40;;;;;;;27.25;15.95;;;;;;;13.03;100.00;96230.03;5049293;28;20045;-66
2022/09/25 07:45:07;;;;;;;24.70;14.27;;;;;;;13.14;100.00;96227.28;5023718;28;20071;-67
2022/09/25 07:47:32;;;;;;;24.95;14.75;;;;;;;13.23;100.00;96227.66;5046585;28;20052;-65
2022/09/25 07:49:58;;;;;;;28.52;13.23;;;;;;;13.28;100.00;96221.75;5045286;28;20049;-65
2022/09/25 07:52:24;;;;;;;22.45;13.60;;;;;;;13.30;100.00;96232.38;5022447;28;20064;-65
2022/09/25 07:54:49;;;;;;;21.52;13.20;;;;;;;13.23;100.00;96235.13;5048162;28;20049;-67
2022/09/25 07:57:19;;;;;;;22.80;13.95;;;;;;;13.24;100.00;96232.00;5038992;28;20143;-64
2022/09/25 07:59:45;;;;;;;22.73;12.30;;;;;;;13.00;100.00;96230.84;5040603;28;20301;-65
2022/09/25 08:02:10;;;;;;;24.67;12.68;;;;;;;13.15;100.00;96223.38;5030318;28;20045;-67
2022/09/25 08:04:36;;;;;;;18.58;12.27;;;;;;;13.34;100.00;96225.72;5046058;28;20088;-65
2022/09/25 08:07:01;;;;;;;19.17;11.68;;;;;;;13.14;100.00;96233.59;5044508;28;20083;-66
2022/09/25 08:09:26;;;;;;;19.48;12.43;;;;;;;13.29;100.00;96231.59;5038740;28;20053;-67
2022/09/25 08:11:52;;;;;;;19.73;11.88;;;;;;;13.43;100.00;96236.28;5042764;28;20033;-64
2022/09/25 08:14:17;;;;;;;21.75;11.95;;;;;;;13.45;100.00;96238.66;5027780;28;20049;-65
2022/09/25 08:16:43;;;;;;;21.38;11.65;;;;;;;13.35;100.00;96238.28;5044292;28;20056;-65
2022/09/25 08:19:10;;;;;;;16.50;10.82;;;;;;;13.33;100.00;96242.63;5033740;28;20076;-66
2022/09/25 08:21:35;;;;;;;17.95;11.25;;;;;;;13.24;100.00;96237.50;5044778;28;20041;-66
2022/09/25 08:24:01;;;;;;;17.60;10.98;;;;;;;13.46;100.00;96242.97;5044949;28;20052;-66
2022/09/25 08:26:28;;;;;;;17.77;11.73;;;;;;;13.56;100.00;96247.69;5041229;28;20044;-66
2022/09/25 08:28:53;;;;;;;18.33;11.23;;;;;;;13.54;100.00;96242.56;5056633;28;20063;-66
2022/09/25 08:31:20;;;;;;;19.75;11.70;;;;;;;13.44;100.00;96242.59;5041668;28;20044;-65
2022/09/25 08:33:47;;;;;;;17.08;10.48;;;;;;;13.50;100.00;96239.03;5043501;28;20048;-64
2022/09/25 08:36:13;;;;;;;19.15;10.60;;;;;;;13.49;100.00;96247.69;5021530;28;20115;-64
2022/09/25 08:38:38;;;;;;;18.60;11.40;;;;;;;13.32;100.00;96255.56;5045493;28;20037;-65
2022/09/25 08:41:26;;;;;;;15.60;10.80;;;;;;;13.38;100.00;96255.97;5039148;28;20057;-65
2022/09/25 08:43:58;;;;;;;19.25;11.38;;;;;;;13.34;100.00;96258.72;5045150;28;20108;-65
2022/09/25 08:49:33;;;;;;;17.65;9.35;;;;;;;13.78;100.00;96253.91;5022404;28;20055;-65
2022/09/25 08:52:03;;;;;;;19.48;10.98;;;;;;;14.01;100.00;96250.66;5047736;28;20037;-67
2022/09/25 08:54:30;;;;;;;14.90;9.50;;;;;;;14.21;100.00;96250.19;5018074;28;20068;-65
2022/09/25 08:57:02;;;;;;;18.67;9.88;;;;;;;14.28;100.00;96250.94;5048244;28;20052;-64
2022/09/25 08:59:36;;;;;;;16.00;9.07;;;;;;;14.21;100.00;96250.19;5028977;28;20091;-65
2022/09/25 09:02:12;;;;;;;16.13;10.77;;;;;;;14.10;100.00;96251.03;5045469;28;20549;-65
2022/09/25 09:04:54;;;;;;;17.58;10.63;;;;;;;14.17;100.00;96258.47;5025713;28;20099;-66
2022/09/25 09:07:25;;;;;;;16.60;10.07;;;;;;;14.21;100.00;96248.22;5022257;28;20060;-66
2022/09/25 09:10:07;;;;;;;15.30;9.23;;;;;;;14.22;100.00;96247.00;5011623;28;20392;-65
2022/09/25 09:12:43;;;;;;;16.30;9.85;;;;;;;14.50;100.00;96237.81;5037421;28;20053;-65
2022/09/25 09:15:39;;;;;;;19.23;10.82;;;;;;;13.97;100.00;96238.88;5041958;28;20099;-66
2022/09/25 09:18:17;;;;;;;16.10;9.50;;;;;;;14.24;100.00;96228.13;5025869;28;20142;-66
2022/09/25 09:20:58;;;;;;;15.98;9.52;;;;;;;14.50;100.00;96234.28;5049140;28;20091;-66
2022/09/25 09:23:39;;;;;;;16.75;9.80;;;;;;;14.64;100.00;96233.41;5042464;28;20566;-65
2022/09/25 09:26:15;;;;;;;19.95;9.15;;;;;;;14.78;100.00;96230.53;5042962;28;20037;-67
2022/09/25 09:29:22;;;;;;;15.23;9.48;;;;;;;14.77;100.00;96223.47;5048297;28;20072;-66
2022/09/25 09:31:55;;;;;;;12.55;8.70;;;;;;;14.80;100.00;96222.66;5005129;28;20041;-66
2022/09/25 09:34:39;;;;;;;13.63;7.70;;;;;;;14.87;100.00;96221.81;5027996;28;20036;-67
2022/09/25 09:37:30;;;;;;;12.13;7.93;;;;;;;15.01;100.00;96229.19;5045050;28;20486;-67
2022/09/25 09:40:23;;;;;;;11.50;7.82;;;;;;;15.02;100.00;96222.50;5049127;28;20059;-65
2022/09/25 09:43:03;;;;;;;13.10;8.65;;;;;;;15.03;100.00;96222.06;5049015;28;20187;-66
2022/09/25 09:45:54;;;;;;;11.52;7.28;;;;;;;14.83;100.00;96221.06;5047029;28;20052;-66
2022/09/25 09:48:32;;;;;;;12.35;7.60;;;;;;;14.91;100.00;96217.06;5006790;28;20054;-67
2022/09/25 09:51:25;;;;;;;13.20;8.25;;;;;;;15.14;100.00;96221.97;5046656;28;20048;-67
2022/09/25 09:53:57;;;;;;;11.93;8.00;;;;;;;15.27;100.00;96219.50;5041713;28;20037;-66
2022/09/25 09:56:30;;;;;;;17.35;9.60;;;;;;;15.68;100.00;96219.47;5024126;28;20057;-66
2022/09/25 09:58:59;;;;;;;11.32;6.85;;;;;;;15.30;100.00;96215.91;5030156;28;20475;-65
2022/09/25 10:01:30;;;;;;;9.82;6.60;;;;;;;15.54;100.00;96219.63;5013299;28;20069;-65
2022/09/25 10:04:16;;;;;;;8.73;6.28;;;;;;;15.81;100.00;96221.69;5048085;28;20047;-65
2022/09/25 10:06:58;;;;;;;11.00;7.85;;;;;;;15.85;100.00;96225.97;5048142;28;20059;-65
2022/09/25 10:09:25;;;;;;;12.50;8.15;;;;;;;15.65;100.00;96217.50;5042600;28;20048;-65
2022/09/25 10:11:59;;;;;;;12.07;7.50;;;;;;;15.49;100.00;96220.84;5048606;28;20040;-66
2022/09/25 10:14:31;;;;;;;11.55;7.13;;;;;;;15.54;100.00;96218.81;5043406;28;20174;-67
2022/09/25 10:16:57;;;;;;;8.82;5.82;;;;;;;15.47;100.00;96212.19;5047693;28;20367;-67
2022/09/25 10:19:27;;;;;;;9.80;6.55;;;;;;;15.86;100.00;96208.22;5040815;28;20110;-66
2022/09/25 10:22:12;;;;;;;8.93;6.00;;;;;;;15.80;100.00;96206.34;5011104;28;20394;-66
2022/09/25 10:24:51;;;;;;;9.40;6.25;;;;;;;16.09;100.00;96212.28;5028606;28;20042;-63
2022/09/25 10:27:30;;;;;;;8.63;5.65;;;;;;;15.95;100.00;96216.00;5012181;28;20041;-65
2022/09/25 10:30:05;;;;;;;8.35;4.90;;;;;;;16.08;100.00;96212.69;5065634;28;20040;-64
2022/09/25 10:32:33;;;;;;;8.93;5.75;;;;;;;16.01;100.00;96206.06;5066447;28;20049;-65
2022/09/25 10:34:59;;;;;;;7.53;5.00;;;;;;;16.48;100.00;96207.41;5029373;28;20048;-65
2022/09/25 10:37:34;;;;;;;9.45;5.20;;;;;;;16.73;100.00;96205.03;5042162;28;20478;-65
2022/09/25 10:40:04;;;;;;;10.10;5.18;;;;;;;16.33;100.00;96210.38;5047943;28;20053;-64
2022/09/25 10:42:40;;;;;;;7.63;5.30;;;;;;;16.14;100.00;96209.06;5046096;28;20100;-65
2022/09/25 10:45:21;;;;;;;8.68;4.78;;;;;;;16.64;100.00;96210.31;5039472;28;20052;-66
2022/09/25 10:50:35;;;;;;;7.15;4.70;;;;;;;17.25;100.00;96205.78;5048239;28;20044;-65
2022/09/25 10:53:03;;;;;;;7.30;4.97;;;;;;;17.91;100.00;96204.94;5068261;28;20040;-65
2022/09/25 10:55:38;;;;;;;7.75;4.40;;;;;;;17.89;100.00;96199.03;5048261;28;20120;-64
2022/09/25 10:58:09;;;;;;;7.95;4.68;;;;;;;18.06;100.00;96210.19;5060012;28;20043;-64
2022/09/25 11:00:53;;;;;;;7.07;4.72;;;;;;;17.68;100.00;96203.03;5065372;28;20041;-66
2022/09/25 11:03:27;;;;;;;6.35;4.75;;;;;;;18.11;100.00;96206.91;5062409;28;20044;-66
2022/09/25 11:05:56;;;;;;;7.18;3.95;;;;;;;17.73;100.00;96199.72;5045383;28;20075;-66
2022/09/25 11:08:29;;;;;;;10.23;5.05;;;;;;;18.10;100.00;96208.91;5054481;28;20053;-65
2022/09/25 11:10:57;;;;;;;7.93;4.45;;;;;;;17.87;100.00;96209.00;5052851;28;20037;-66
2022/09/25 11:13:44;;;;;;;6.10;3.53;;;;;;;17.83;100.00;96202.72;5047378;28;20529;-67
2022/09/25 11:16:10;;;;;;;5.90;3.92;;;;;;;18.23;100.00;96206.25;5059575;28;20552;-67
2022/09/25 11:18:46;;;;;;;5.82;3.78;;;;;;;18.59;100.00;96208.22;5067312;28;20040;-67
2022/09/25 11:21:30;;;;;;;5.75;3.80;;;;;;;18.54;100.00;96203.97;5053465;28;20040;-67
2022/09/25 11:24:05;;;;;;;5.05;3.22;;;;;;;18.57;100.00;96198.78;5064308;28;20045;-67
2022/09/25 11:26:37;;;;;;;5.43;2.70;;;;;;;18.93;100.00;96195.19;5046993;28;20041;-66
2022/09/25 11:29:12;;;;;;;6.28;4.15;;;;;;;19.08;100.00;96201.94;5066808;28;20524;-64
2022/09/25 11:31:48;;;;;;;6.07;3.42;;;;;;;19.01;100.00;96197.34;5064535;28;20417;-65
2022/09/25 11:34:44;;;;;;;4.55;3.28;;;;;;;19.30;96.14;96196.59;5062882;28;20547;-66
2022/09/25 11:37:24;;;;;;;4.47;3.30;;;;;;;18.75;100.00;96196.38;5061595;28;20079;-66
2022/09/25 11:43:05;;;;;;;8.82;3.50;;;;;;;18.75;100.00;96192.81;5052624;28;20048;-65
2022/09/25 11:45:50;;;;;;;5.15;3.50;;;;;;;18.18;100.00;96192.91;5058317;28;20106;-66
2022/09/25 11:48:31;;;;;;;7.55;4.80;;;;;;;18.34;100.00;96194.94;5057149;28;20478;-65
2022/09/25 11:51:35;;;;;;;7.55;4.70;;;;;;;17.87;100.00;96189.63;5064392;28;20053;-65
2022/09/25 11:54:26;;;;;;;7.82;4.60;;;;;;;17.94;100.00;96186.69;4988695;28;20090;-65
2022/09/25 11:57:04;;;;;;;8.38;5.55;;;;;;;18.18;100.00;96184.59;5064970;28;20032;-66